Time;durP1;ratioP1;P1;durP2;ratioP2;P2;SDS_P1;SDS_P2;PMS_P1;PMS_P2;Temp;Humidity;BMP_temperature;BMP_pressure;BME280_temperature;BME280_humidity;BME280_pressure;Samples;Min_cycle;Max_cycle;Signal;HPM_P1;HPM_P2
2024/05/01 00:02:18;;;;;;;15.37;13.90;;;18.90;88.60;;;-145.48;97.26;99179.44;5057045;28;20281;-81
2024/05/01 00:04:44;;;;;;;21.40;13.70;;;18.90;89.00;;;-145.48;97.42;99169.03;5056776;28;20639;-82
2024/05/01 00:07:10;;;;;;;15.67;14.17;;;18.80;89.50;;;-145.48;97.47;99117.03;5040276;28;20457;-80
2024/05/01 00:09:36;;;;;;;27.50;23.10;;;18.90;89.80;;;-145.48;97.61;99194.00;5040059;28;20550;-80
2024/05/01 00:12:02;;;;;;;18.00;16.10;;;18.80;90.40;;;-145.48;97.70;99166.97;5056720;28;20182;-80
2024/05/01 00:14:28;;;;;;;19.67;15.80;;;18.80;90.40;;;-145.48;97.86;99139.91;5073239;28;20667;-81
2024/05/01 00:16:53;;;;;;;19.43;16.83;;;18.80;90.70;;;-145.48;97.95;99142.00;5056361;28;20477;-81
2024/05/01 00:19:19;;;;;;;16.50;13.90;;;18.80;91.10;;;-145.48;98.01;99160.72;5073163;28;20248;-80
2024/05/01 00:21:45;;;;;;;13.50;12.10;;;18.80;91.30;;;-145.48;98.07;99179.44;5046053;28;20186;-80
2024/05/01 00:24:11;;;;;;;17.27;15.10;;;18.80;91.50;;;-145.48;98.13;99156.56;5036332;28;20270;-81
2024/05/01 00:26:36;;;;;;;16.90;15.17;;;18.80;91.60;;;-145.48;98.26;99164.88;5052993;28;20278;-80
2024/05/01 00:29:02;;;;;;;15.57;14.07;;;18.70;91.80;;;-145.48;98.39;99183.59;5036264;28;20188;-79
2024/05/01 00:31:28;;;;;;;18.50;15.83;;;18.70;92.10;;;-145.48;98.57;99177.38;5036224;28;20255;-81
2024/05/01 00:33:54;;;;;;;16.20;14.60;;;18.70;92.50;;;-145.48;98.53;99162.81;5036030;28;20222;-81
2024/05/01 00:36:20;;;;;;;15.63;14.13;;;18.70;92.80;;;-145.48;98.68;99152.41;5036087;28;20786;-81
2024/05/01 00:38:46;;;;;;;22.50;15.43;;;18.60;93.00;;;-145.48;98.93;99150.31;5019659;28;20218;-81
2024/05/01 00:41:12;;;;;;;17.80;15.60;;;18.60;93.50;;;-145.48;98.93;99119.09;5039018;28;20449;-81
2024/05/01 00:43:38;;;;;;;15.97;14.37;;;18.60;93.50;;;-145.48;98.89;99210.66;5072477;28;20187;-79
2024/05/01 00:46:04;;;;;;;16.00;14.50;;;18.60;93.50;;;-145.48;99.15;99196.09;5055913;28;20190;-81
2024/05/01 00:48:30;;;;;;;17.57;15.43;;;18.60;94.00;;;-145.48;99.14;99179.44;5072298;28;20206;-80
2024/05/01 00:50:57;;;;;;;17.17;15.60;;;18.60;94.10;;;-145.48;99.04;99196.09;5048448;28;20997;-80
2024/05/01 00:53:24;;;;;;;13.80;12.50;;;18.60;93.90;;;-145.48;99.24;99189.84;5065755;28;20512;-80
2024/05/01 00:55:51;;;;;;;16.97;15.27;;;18.60;94.10;;;-145.48;99.31;99212.75;5065799;28;20438;-80
2024/05/01 00:58:17;;;;;;;15.37;13.87;;;18.60;94.60;;;-145.48;99.28;99196.09;5032376;28;20435;-80
2024/05/01 01:00:44;;;;;;;15.70;14.30;;;18.50;94.40;;;-145.48;99.41;99200.25;5015757;28;20594;-81
2024/05/01 01:03:11;;;;;;;17.07;15.47;;;18.50;94.90;;;-145.48;99.46;99223.16;5048856;28;20836;-80
2024/05/01 01:05:38;;;;;;;15.77;14.13;;;18.50;95.00;;;-145.48;99.53;99214.81;5031913;28;20427;-80
2024/05/01 01:08:04;;;;;;;17.97;16.13;;;18.50;95.00;;;-145.48;99.73;99200.25;5065280;28;20517;-80
2024/05/01 01:10:30;;;;;;;17.47;15.73;;;18.50;95.50;;;-145.48;99.54;99158.63;5032880;28;20449;-81
2024/05/01 01:12:59;;;;;;;18.93;16.43;;;18.50;95.70;;;-145.48;99.64;99200.25;5055291;28;20762;-80
2024/05/01 01:15:25;;;;;;;18.77;15.70;;;18.50;95.30;;;-145.48;99.63;99187.78;5071876;28;20183;-80
2024/05/01 01:17:52;;;;;;;16.50;15.00;;;18.50;95.30;;;-145.48;99.88;99212.75;5071722;28;20514;-80
2024/05/01 01:20:17;;;;;;;17.93;16.33;;;18.40;95.50;;;-145.48;99.89;99204.41;5038607;28;20233;-80
2024/05/01 01:22:44;;;;;;;17.40;15.80;;;18.40;95.90;;;-145.48;100.00;99204.41;5053130;28;20461;-80
2024/05/01 01:25:10;;;;;;;19.13;17.23;;;18.40;96.30;;;-145.48;100.00;99254.38;5051687;28;20180;-80
2024/05/01 01:27:36;;;;;;;16.97;15.30;;;18.40;96.60;;;-145.48;100.00;99243.97;5018766;28;20440;-80
2024/05/01 01:30:06;;;;;;;18.60;16.80;;;18.40;96.70;;;-145.48;100.00;99266.84;5035066;28;20168;-81
2024/05/01 01:32:39;;;;;;;18.37;16.53;;;18.30;96.90;;;-145.48;100.00;99227.31;5035635;28;20488;-80
2024/05/01 01:35:05;;;;;;;18.33;16.60;;;18.30;97.20;;;-145.48;100.00;99212.75;5034830;28;20620;-80
2024/05/01 01:37:31;;;;;;;19.80;17.13;;;18.30;97.80;;;-145.48;100.00;99256.44;5051476;28;20430;-80
2024/05/01 01:39:57;;;;;;;18.77;16.90;;;18.30;98.20;;;-145.48;100.00;99227.31;5038044;28;20190;-81
2024/05/01 01:42:22;;;;;;;16.40;14.90;;;18.20;98.60;;;-145.48;100.00;99250.19;5038257;28;20569;-81
2024/05/01 01:44:48;;;;;;;18.83;16.83;;;18.20;98.90;;;-145.48;100.00;99237.72;5054688;28;20212;-81
2024/05/01 01:47:14;;;;;;;19.57;17.53;;;18.10;99.00;;;-145.48;100.00;99231.47;5054850;28;20258;-81
2024/05/01 01:49:40;;;;;;;18.57;16.97;;;18.10;99.30;;;-145.48;100.00;99225.22;5071506;28;20224;-81
2024/05/01 01:52:06;;;;;;;20.30;18.20;;;18.10;99.60;;;-145.48;100.00;99262.69;5042126;28;20191;-81
2024/05/01 01:54:31;;;;;;;20.00;18.10;;;18.10;99.90;;;-145.48;100.00;99250.19;5018472;28;20207;-81
2024/05/01 01:56:57;;;;;;;21.87;17.37;;;18.00;99.90;;;-145.48;100.00;99277.25;5018182;28;20422;-81
2024/05/01 01:59:23;;;;;;;19.00;17.10;;;18.00;99.90;;;-145.48;100.00;99308.47;5017941;28;20188;-80
2024/05/01 02:01:49;;;;;;;18.73;16.90;;;17.90;99.90;;;-145.48;100.00;99252.28;5018045;28;20191;-80
2024/05/01 02:04:15;;;;;;;20.80;18.60;;;17.80;99.90;;;-145.48;100.00;99300.16;5034227;28;20187;-80
2024/05/01 02:06:40;;;;;;;19.67;17.63;;;17.80;99.90;;;-145.48;100.00;99279.34;5034281;28;20180;-80
2024/05/01 02:09:08;;;;;;;19.47;17.30;;;17.70;99.90;;;-145.48;100.00;99295.97;5020282;28;20650;-80
2024/05/01 02:11:38;;;;;;;20.60;18.13;;;17.70;99.90;;;-145.48;100.00;99281.41;5054301;28;20644;-80
2024/05/01 02:14:03;;;;;;;20.87;18.40;;;17.70;99.90;;;-145.48;100.00;99277.25;5054057;28;21003;-80
2024/05/01 02:16:29;;;;;;;20.77;18.77;;;17.70;99.90;;;-145.48;100.00;99291.81;5054070;28;20422;-79
2024/05/01 02:18:55;;;;;;;20.47;18.57;;;17.70;99.90;;;-145.48;100.00;99287.66;5054207;28;20281;-81
2024/05/01 02:21:20;;;;;;;18.60;16.70;;;17.60;99.90;;;-145.48;100.00;99312.63;5046583;28;20191;-81
2024/05/01 02:23:46;;;;;;;19.47;17.60;;;17.50;99.90;;;-145.48;100.00;99327.19;5017640;28;20179;-81
2024/05/01 02:26:12;;;;;;;20.20;18.20;;;17.50;99.90;;;-145.48;100.00;99316.78;5017527;28;20187;-81
2024/05/01 02:28:39;;;;;;;18.80;16.80;;;17.40;99.90;;;-145.48;100.00;99327.19;5034056;28;20277;-81
2024/05/01 02:31:06;;;;;;;21.00;18.90;;;17.20;99.90;;;-145.48;100.00;99350.09;5017679;28;20175;-79
2024/05/01 02:33:32;;;;;;;19.77;17.63;;;17.20;99.90;;;-145.48;100.00;99364.66;5050704;28;20473;-80
2024/05/01 02:35:58;;;;;;;20.93;18.90;;;17.10;99.90;;;-145.48;100.00;99345.94;5033933;28;20430;-79
2024/05/01 02:38:24;;;;;;;20.23;18.43;;;17.00;99.90;;;-145.48;100.00;99387.53;5050621;28;20302;-80
2024/05/01 02:40:49;;;;;;;20.67;18.67;;;17.00;99.90;;;-145.48;100.00;99395.88;5036954;28;20601;-79
2024/05/01 02:43:15;;;;;;;20.37;18.27;;;17.00;99.90;;;-145.48;100.00;99410.44;5053709;28;20193;-79
2024/05/01 02:45:41;;;;;;;20.47;18.47;;;17.00;99.90;;;-145.48;100.00;99370.91;5053792;28;20546;-79
2024/05/01 02:48:07;;;;;;;21.27;19.27;;;17.00;99.90;;;-145.48;100.00;99354.25;5053681;28;20179;-80
2024/05/01 02:50:33;;;;;;;21.27;19.10;;;17.00;99.90;;;-145.48;100.00;99368.81;5052974;28;20175;-80
2024/05/01 02:53:00;;;;;;;21.00;18.90;;;17.10;99.90;;;-145.48;100.00;99370.91;5050324;28;20426;-80
2024/05/01 02:55:25;;;;;;;21.10;19.07;;;17.00;99.90;;;-145.48;100.00;99377.13;5033218;28;20196;-80
2024/05/01 02:57:51;;;;;;;21.63;19.37;;;17.00;99.90;;;-145.48;100.00;99370.91;5033650;28;20941;-79
2024/05/01 03:00:17;;;;;;;22.57;20.27;;;17.00;99.90;;;-145.48;100.00;99385.47;5017278;28;20191;-80
2024/05/01 03:02:43;;;;;;;23.00;20.33;;;17.00;99.90;;;-145.48;100.00;99375.06;5017287;28;20485;-79
2024/05/01 03:05:09;;;;;;;25.10;21.97;;;17.00;99.90;;;-145.48;100.00;99350.09;5017210;28;20667;-79
2024/05/01 03:07:34;;;;;;;25.57;22.97;;;17.10;99.90;;;-145.48;100.00;99368.81;5017183;28;20241;-79
2024/05/01 03:10:00;;;;;;;25.57;22.90;;;17.00;99.90;;;-145.48;100.00;99362.56;5028924;28;20210;-81
2024/05/01 03:12:26;;;;;;;23.37;20.90;;;17.00;99.90;;;-145.48;100.00;99368.81;5070366;28;20187;-81
2024/05/01 03:14:53;;;;;;;23.60;21.10;;;17.00;99.90;;;-145.48;100.00;99368.81;5053376;28;20222;-81
2024/05/01 03:17:19;;;;;;;23.17;20.90;;;16.90;99.90;;;-145.48;100.00;99400.03;5083277;28;20229;-79
2024/05/01 03:19:45;;;;;;;23.70;20.93;;;16.90;99.90;;;-145.48;100.00;99395.88;5076947;28;20437;-79
2024/05/01 03:22:10;;;;;;;23.63;21.23;;;16.90;99.90;;;-145.48;100.00;99416.69;5076869;28;20198;-80
2024/05/01 03:24:37;;;;;;;24.70;22.07;;;16.90;99.90;;;-145.48;100.00;99412.53;5037585;28;20521;-80
2024/05/01 03:27:05;;;;;;;25.90;23.50;;;16.80;99.90;;;-145.48;100.00;99370.91;5088104;28;20573;-79
2024/05/01 03:29:31;;;;;;;25.07;22.13;;;16.80;99.90;;;-145.48;100.00;99445.81;5054338;28;20955;-79
2024/05/01 03:31:57;;;;;;;25.20;22.00;;;16.80;99.90;;;-145.48;100.00;99391.72;5087734;28;20194;-80
2024/05/01 03:34:22;;;;;;;24.00;21.70;;;16.80;99.90;;;-145.48;100.00;99418.75;5073790;28;20226;-80
2024/05/01 03:36:48;;;;;;;22.30;20.00;;;16.70;99.90;;;-145.48;100.00;99416.69;5090832;28;20425;-79
2024/05/01 03:39:14;;;;;;;23.67;21.27;;;16.70;99.90;;;-145.48;100.00;99404.19;5080724;28;20193;-80
2024/05/01 03:41:40;;;;;;;23.97;21.60;;;16.70;99.90;;;-145.48;100.00;99425.00;5080682;28;20181;-80
2024/05/01 03:44:05;;;;;;;25.33;20.57;;;16.70;99.90;;;-145.48;100.00;99385.47;5080630;28;20197;-80
2024/05/01 03:46:35;;;;;;;27.47;23.50;;;16.70;99.90;;;-145.48;100.00;99420.84;5080510;28;20600;-80
2024/05/01 03:49:01;;;;;;;24.67;22.03;;;16.60;99.90;;;-145.48;100.00;99445.81;5097270;28;20189;-80
2024/05/01 03:51:27;;;;;;;23.40;21.07;;;16.60;99.90;;;-145.48;100.00;99387.53;5089077;28;20462;-80
2024/05/01 03:53:53;;;;;;;22.80;20.53;;;16.60;99.90;;;-145.48;100.00;99443.75;5060185;28;21046;-80
2024/05/01 03:56:23;;;;;;;26.53;23.80;;;16.50;99.90;;;-145.48;100.00;99447.91;5094080;28;20190;-81
2024/05/01 03:58:49;;;;;;;25.10;22.40;;;16.50;99.90;;;-145.48;100.00;99437.50;5076838;28;20185;-79
2024/05/01 04:01:15;;;;;;;26.13;23.30;;;16.40;99.90;;;-145.48;100.00;99422.94;5076926;28;20439;-80
2024/05/01 04:03:41;;;;;;;24.07;21.53;;;16.40;99.90;;;-145.48;100.00;99433.34;5059924;28;20427;-81
2024/05/01 04:06:08;;;;;;;23.20;20.70;;;16.50;99.90;;;-145.48;100.00;99404.19;5076542;28;20780;-79
2024/05/01 04:08:37;;;;;;;26.73;23.03;;;16.50;99.90;;;-145.48;100.00;99437.50;5076270;28;20467;-79
2024/05/01 04:11:05;;;;;;;24.93;22.53;;;16.60;99.90;;;-145.48;100.00;99452.06;5080009;28;20446;-79
2024/05/01 04:13:31;;;;;;;24.10;21.30;;;16.50;99.90;;;-145.48;100.00;99429.16;5079874;28;20459;-79
2024/05/01 04:15:57;;;;;;;25.23;21.53;;;16.50;99.90;;;-145.48;100.00;99429.16;5113613;28;20425;-80
2024/05/01 04:18:23;;;;;;;25.13;22.57;;;16.50;99.90;;;-145.48;100.00;99474.94;5113610;28;20704;-81
2024/05/01 04:20:49;;;;;;;23.20;21.00;;;16.40;99.90;;;-145.48;100.00;99431.25;5093504;28;20436;-80
2024/05/01 04:23:15;;;;;;;23.20;20.90;;;16.40;99.90;;;-145.48;100.00;99479.13;5076456;28;20209;-80
2024/05/01 04:25:41;;;;;;;22.70;20.40;;;16.30;99.90;;;-145.48;100.00;99458.31;5093267;28;20239;-79
2024/05/01 04:28:08;;;;;;;22.30;20.00;;;16.30;99.90;;;-145.48;100.00;99454.13;5076354;28;20424;-79
2024/05/01 04:30:35;;;;;;;25.60;22.53;;;16.30;99.90;;;-145.48;100.00;99466.63;5059516;28;20663;-81
2024/05/01 04:33:01;;;;;;;24.03;21.63;;;16.20;99.90;;;-145.48;100.00;99470.78;5076129;28;20432;-80
2024/05/01 04:35:27;;;;;;;24.80;22.10;;;16.20;99.90;;;-145.48;100.00;99462.47;5075958;28;20519;-80
2024/05/01 04:37:53;;;;;;;24.83;22.30;;;16.20;99.90;;;-145.48;100.00;99425.00;5076150;28;20515;-79
2024/05/01 04:40:18;;;;;;;25.60;22.97;;;16.10;99.90;;;-145.48;100.00;99474.94;5079364;28;20275;-80
2024/05/01 04:42:44;;;;;;;25.83;23.10;;;16.10;99.90;;;-145.48;100.00;99491.59;5079089;28;20180;-81
2024/05/01 04:45:10;;;;;;;26.57;23.87;;;16.00;99.90;;;-145.48;100.00;99512.41;5078212;28;20177;-79
2024/05/01 04:47:36;;;;;;;25.00;22.33;;;16.00;99.90;;;-145.48;100.00;99499.94;5113260;28;20280;-81
2024/05/01 04:50:02;;;;;;;26.93;23.50;;;16.00;99.90;;;-145.48;100.00;99499.94;5096019;28;20192;-79
2024/05/01 04:52:27;;;;;;;26.20;23.57;;;15.90;99.90;;;-145.48;100.00;99512.41;5096340;28;20192;-80
2024/05/01 04:54:53;;;;;;;24.50;22.20;;;15.90;99.90;;;-145.48;100.00;99524.91;5112890;28;20252;-80
2024/05/01 04:57:19;;;;;;;25.57;23.07;;;15.90;99.90;;;-145.48;100.00;99470.78;5095936;28;20272;-81
2024/05/01 04:59:45;;;;;;;25.10;22.50;;;16.00;99.90;;;-145.48;100.00;99504.09;5095776;28;20189;-79
2024/05/01 05:02:10;;;;;;;27.90;24.00;;;16.00;99.90;;;-145.48;100.00;99464.53;5095958;28;20646;-80
2024/05/01 05:04:36;;;;;;;25.20;22.80;;;16.00;99.90;;;-145.48;100.00;99504.09;5113921;28;20531;-79
2024/05/01 05:07:02;;;;;;;24.70;22.10;;;16.00;99.90;;;-145.48;100.00;99479.13;5095646;28;20507;-80
2024/05/01 05:09:28;;;;;;;25.43;22.80;;;16.00;99.90;;;-145.48;100.00;99512.41;5079081;28;20192;-80
2024/05/01 05:11:54;;;;;;;28.17;23.40;;;16.00;99.90;;;-145.48;100.00;99487.44;5095867;28;20423;-80
2024/05/01 05:14:19;;;;;;;25.20;22.47;;;15.70;99.90;;;-145.48;100.00;99495.75;5112580;28;20212;-80
2024/05/01 05:16:45;;;;;;;29.13;23.13;;;16.00;99.90;;;-145.48;100.00;99497.84;5095410;28;20182;-79
2024/05/01 05:19:11;;;;;;;25.83;23.13;;;16.00;99.90;;;-145.48;100.00;99504.09;5112556;28;20646;-80
2024/05/01 05:21:41;;;;;;;25.27;22.73;;;16.00;99.90;;;-145.48;100.00;99512.41;5069341;28;20277;-80
2024/05/01 05:24:07;;;;;;;23.90;21.53;;;16.00;99.90;;;-145.48;100.00;99499.94;5075370;28;20213;-79
2024/05/01 05:26:34;;;;;;;26.40;23.70;;;16.00;99.90;;;-145.48;100.00;99514.50;5075720;28;20475;-80
2024/05/01 05:29:00;;;;;;;25.33;22.73;;;16.00;99.90;;;-145.48;100.00;99504.09;5075152;28;20666;-80
2024/05/01 05:31:26;;;;;;;24.33;21.83;;;16.00;99.90;;;-145.48;100.00;99491.59;5058316;28;20424;-79
2024/05/01 05:33:51;;;;;;;26.60;23.80;;;16.10;99.90;;;-145.48;100.00;99506.16;5074818;28;20573;-79
2024/05/01 05:36:17;;;;;;;28.80;23.80;;;16.10;99.90;;;-145.48;100.00;99495.75;5074926;28;20618;-81
2024/05/01 05:38:43;;;;;;;25.17;22.63;;;16.10;99.90;;;-145.48;100.00;99474.94;5074825;28;20220;-80
2024/05/01 05:41:09;;;;;;;24.83;22.43;;;16.10;99.90;;;-145.48;100.00;99506.16;5111688;28;20201;-80
2024/05/01 05:43:35;;;;;;;29.00;25.70;;;16.10;99.90;;;-145.48;100.00;99477.03;5095102;28;20182;-80
2024/05/01 05:46:02;;;;;;;31.40;24.90;;;16.10;99.90;;;-145.48;100.00;99470.78;5094998;28;20189;-79
2024/05/01 05:48:28;;;;;;;24.97;22.37;;;16.10;99.90;;;-145.48;100.00;99479.13;5078037;28;20193;-79
2024/05/01 05:50:54;;;;;;;24.50;21.63;;;16.20;99.90;;;-145.48;100.00;99491.59;5074562;28;20812;-80
2024/05/01 05:53:20;;;;;;;26.40;23.07;;;16.30;99.90;;;-145.48;100.00;99474.94;5091913;28;20554;-80
2024/05/01 05:55:46;;;;;;;24.40;21.63;;;16.30;99.90;;;-145.48;100.00;99458.31;5057636;28;20194;-80
2024/05/01 05:58:12;;;;;;;26.43;23.80;;;16.40;99.90;;;-145.48;100.00;99437.50;5075375;28;20752;-80
2024/05/01 06:00:37;;;;;;;26.00;22.63;;;16.50;99.90;;;-145.48;100.00;99454.13;5075662;28;20198;-80
2024/05/01 06:03:03;;;;;;;25.67;23.27;;;16.50;99.90;;;-145.48;100.00;99433.34;5075549;28;20204;-79
2024/05/01 06:05:29;;;;;;;25.90;23.53;;;16.60;99.90;;;-145.48;100.00;99429.16;5075750;28;20178;-80
2024/05/01 06:07:55;;;;;;;24.07;21.47;;;16.70;99.90;;;-145.48;100.00;99427.09;5075245;28;20432;-80
2024/05/01 06:10:21;;;;;;;25.90;23.57;;;16.80;99.90;;;-145.48;100.00;99437.50;5078796;28;20209;-80
2024/05/01 06:12:46;;;;;;;25.87;23.37;;;16.90;99.90;;;-145.48;100.00;99412.53;5095345;28;20174;-81
2024/05/01 06:15:12;;;;;;;28.73;21.80;;;16.90;99.90;;;-145.48;100.00;99393.78;5112435;28;20205;-80
2024/05/01 06:17:38;;;;;;;25.80;21.50;;;16.90;99.90;;;-145.48;100.00;99400.03;5094877;28;20685;-81
2024/05/01 06:20:04;;;;;;;22.10;20.00;;;17.00;99.90;;;-145.48;100.00;99412.53;5112285;28;20193;-81
2024/05/01 06:22:30;;;;;;;25.33;22.73;;;17.00;99.90;;;-145.48;100.00;99387.53;5057504;28;20190;-81
2024/05/01 06:24:56;;;;;;;25.00;22.30;;;17.10;99.90;;;-145.48;100.00;99431.25;5093151;28;20440;-81
2024/05/01 06:27:23;;;;;;;25.90;22.93;;;17.20;99.90;;;-145.48;100.00;99395.88;5088880;28;20175;-79
2024/05/01 06:29:49;;;;;;;26.17;23.47;;;17.20;99.90;;;-145.48;100.00;99397.94;5054909;28;20434;-80
2024/05/01 06:32:15;;;;;;;30.00;23.10;;;17.20;99.90;;;-145.48;100.00;99387.53;5088515;28;20760;-81
2024/05/01 06:34:40;;;;;;;25.00;22.30;;;17.30;99.90;;;-145.48;100.00;99358.41;5054722;28;20472;-79
2024/05/01 06:37:06;;;;;;;24.23;21.40;;;17.40;99.90;;;-145.48;100.00;99362.56;5056798;28;20179;-80
2024/05/01 06:39:32;;;;;;;23.97;21.67;;;17.40;99.90;;;-145.48;100.00;99331.34;5051196;28;20189;-80
2024/05/01 06:41:58;;;;;;;24.03;21.63;;;17.40;99.90;;;-145.48;100.00;99360.50;5095446;28;20181;-81
2024/05/01 06:44:24;;;;;;;24.13;21.70;;;17.50;99.90;;;-145.48;100.00;99354.25;5113203;28;20196;-80
2024/05/01 06:46:51;;;;;;;24.30;21.80;;;17.60;99.90;;;-145.48;100.00;99333.44;5112376;28;20518;-80
2024/05/01 06:49:17;;;;;;;23.63;21.23;;;17.60;99.90;;;-145.48;100.00;99306.38;5095066;28;20653;-80
2024/05/01 06:51:43;;;;;;;23.50;21.20;;;17.70;99.90;;;-145.48;100.00;99304.31;5068132;28;20443;-80
2024/05/01 06:54:09;;;;;;;26.23;23.60;;;17.60;99.90;;;-145.48;100.00;99312.63;5075256;28;20460;-79
2024/05/01 06:56:34;;;;;;;26.00;23.40;;;17.70;99.90;;;-145.48;100.00;99320.94;5058665;28;20265;-80
2024/05/01 06:59:00;;;;;;;26.47;23.90;;;17.80;99.90;;;-145.48;100.00;99320.94;5075326;28;20179;-80
2024/05/01 07:01:26;;;;;;;26.00;23.30;;;17.80;99.90;;;-145.48;100.00;99293.91;5077160;28;20651;-79
2024/05/01 07:03:52;;;;;;;24.53;21.97;;;17.90;99.90;;;-145.48;100.00;99295.97;5073955;28;20193;-80
2024/05/01 07:06:17;;;;;;;26.17;23.67;;;18.00;99.90;;;-145.48;100.00;99287.66;5073743;28;20669;-80
2024/05/01 07:08:43;;;;;;;26.17;23.53;;;18.10;99.90;;;-145.48;100.00;99241.88;5077755;28;20213;-80
2024/05/01 07:11:09;;;;;;;26.33;23.33;;;18.20;99.90;;;-145.48;100.00;99241.88;5081469;28;20181;-81
2024/05/01 07:13:35;;;;;;;28.77;25.77;;;18.20;99.90;;;-145.48;100.00;99295.97;5084521;28;20197;-80
2024/05/01 07:16:00;;;;;;;25.93;23.23;;;18.30;99.90;;;-145.48;100.00;99258.53;5115670;28;20188;-80
2024/05/01 07:18:27;;;;;;;25.77;23.27;;;18.40;99.90;;;-145.48;100.00;99252.28;5098716;28;20221;-82
2024/05/01 07:20:52;;;;;;;25.93;23.40;;;18.40;99.90;;;-145.48;100.00;99295.97;5095356;28;20194;-81
2024/05/01 07:23:23;;;;;;;28.17;25.27;;;18.50;99.90;;;-145.48;100.00;99289.75;5095330;28;20501;-79
2024/05/01 07:25:49;;;;;;;28.77;25.90;;;18.50;99.90;;;-145.48;100.00;99239.78;5079451;28;20220;-80
2024/05/01 07:28:15;;;;;;;27.83;23.70;;;18.50;99.90;;;-145.48;100.00;99237.72;5078252;28;20432;-80
2024/05/01 07:30:41;;;;;;;26.57;24.10;;;18.60;99.90;;;-145.48;100.00;99246.03;5077810;28;20429;-82
2024/05/01 07:33:09;;;;;;;26.90;24.07;;;18.70;99.90;;;-145.48;100.00;99164.88;5077918;28;20204;-80
2024/05/01 07:35:35;;;;;;;28.53;25.87;;;18.70;99.90;;;-145.48;100.00;99200.25;5061010;28;20285;-80
2024/05/01 07:38:01;;;;;;;27.77;24.80;;;18.80;98.20;;;-145.48;100.00;99191.94;5077668;28;20852;-80
2024/05/01 07:40:30;;;;;;;27.67;24.97;;;18.80;98.50;;;-145.48;100.00;99231.47;5081332;28;20193;-81
2024/05/01 07:42:55;;;;;;;26.53;23.93;;;18.90;98.50;;;-145.48;100.00;99191.94;5081239;28;20192;-80
2024/05/01 07:45:21;;;;;;;28.13;25.13;;;18.90;99.50;;;-145.48;100.00;99189.84;5098169;28;20430;-81
2024/05/01 07:47:47;;;;;;;25.90;23.37;;;18.90;99.90;;;-145.48;100.00;99162.81;5097989;28;20536;-81
2024/05/01 07:50:14;;;;;;;27.10;24.57;;;19.00;99.90;;;-145.48;100.00;99179.44;5098031;28;20182;-80
2024/05/01 07:52:40;;;;;;;26.20;23.70;;;19.00;99.30;;;-145.48;100.00;99152.41;5059918;28;20236;-81
2024/05/01 07:55:06;;;;;;;27.83;24.60;;;19.00;98.20;;;-145.48;100.00;99175.28;5057763;28;20564;-81
2024/05/01 07:57:31;;;;;;;26.17;23.27;;;18.80;97.40;;;-145.48;100.00;99175.28;5040857;28;20178;-81
2024/05/01 07:59:57;;;;;;;27.50;24.70;;;19.10;97.80;;;-145.48;100.00;99183.59;5040870;28;21118;-78
2024/05/01 08:02:23;;;;;;;25.67;22.87;;;19.20;97.40;;;-145.48;100.00;99164.88;5040593;28;20206;-81
2024/05/01 08:04:49;;;;;;;26.60;23.93;;;19.20;95.90;;;-145.48;100.00;99129.50;5040316;28;20542;-80
2024/05/01 08:07:14;;;;;;;27.13;24.43;;;19.30;95.80;;;-145.48;100.00;99121.19;5040143;28;20179;-80
2024/05/01 08:09:40;;;;;;;25.93;23.40;;;19.10;95.10;;;-145.48;100.00;99129.50;5071751;28;20193;-81
2024/05/01 08:12:06;;;;;;;25.83;23.40;;;19.50;94.80;;;-145.48;100.00;99104.53;5080179;28;20234;-80
2024/05/01 08:14:32;;;;;;;24.23;21.90;;;19.60;93.60;;;-145.48;100.00;99112.84;5113958;28;20321;-80
2024/05/01 08:16:59;;;;;;;25.53;21.83;;;19.60;92.20;;;-145.48;100.00;99079.56;5079968;28;20333;-80
2024/05/01 08:19:25;;;;;;;27.00;24.40;;;19.60;92.40;;;-145.48;100.00;99114.94;5097113;28;20180;-80
2024/05/01 08:21:52;;;;;;;25.30;22.77;;;19.60;93.00;;;-145.48;100.00;99169.03;5081526;28;20441;-80
2024/05/01 08:24:17;;;;;;;23.57;21.17;;;19.60;90.20;;;-145.48;100.00;99146.16;5039712;28;20435;-81
2024/05/01 08:26:43;;;;;;;24.50;22.13;;;19.70;89.40;;;-145.48;100.00;99112.84;5072948;28;20429;-81
2024/05/01 08:29:09;;;;;;;25.37;22.97;;;19.70;90.50;;;-145.48;100.00;99127.44;5039791;28;20190;-82
2024/05/01 08:31:35;;;;;;;23.90;20.40;;;19.70;90.30;;;-145.48;100.00;99067.06;5039888;28;20635;-81
2024/05/01 08:34:01;;;;;;;23.63;21.40;;;19.80;90.20;;;-145.48;100.00;99067.06;5056774;28;20686;-81
2024/05/01 08:36:26;;;;;;;23.67;21.57;;;19.90;86.40;;;-145.48;100.00;98938.06;5073106;28;20273;-81
2024/05/01 08:38:52;;;;;;;23.20;21.00;;;20.10;85.50;;;-145.48;100.00;99048.34;5075498;28;20202;-81
2024/05/01 08:41:18;;;;;;;22.73;20.43;;;20.10;84.80;;;-145.48;100.00;99040.03;5097006;28;20189;-81
2024/05/01 08:43:46;;;;;;;23.20;20.87;;;20.20;80.90;;;-145.48;100.00;99025.47;5113500;28;20223;-80
2024/05/01 08:46:13;;;;;;;23.20;20.87;;;20.30;80.00;;;-145.48;100.00;99033.78;5096809;28;20722;-81
2024/05/01 08:48:39;;;;;;;24.23;21.57;;;20.30;81.10;;;-145.48;100.00;99035.88;5079470;28;20426;-81
2024/05/01 08:51:11;;;;;;;23.07;20.77;;;20.40;82.60;;;-145.48;100.00;98983.84;5071561;28;20459;-80
2024/05/01 08:53:42;;;;;;;23.10;20.87;;;20.50;81.60;;;-145.48;100.00;98971.34;5073407;28;20202;-82
2024/05/01 08:56:09;;;;;;;25.20;22.50;;;20.60;82.20;;;-145.48;100.00;98971.34;5056606;28;20432;-82
2024/05/01 08:58:36;;;;;;;27.33;22.60;;;20.70;81.00;;;-145.48;100.00;98944.31;5040199;28;20429;-82
2024/05/01 09:01:08;;;;;;;25.93;23.23;;;20.80;78.70;;;-145.48;100.00;98956.78;5075802;28;20478;-82
2024/05/01 09:03:34;;;;;;;24.93;22.53;;;20.80;79.30;;;-145.48;100.00;98946.41;5039787;28;20429;-83
2024/05/01 09:05:59;;;;;;;28.00;25.27;;;20.90;79.20;;;-145.48;100.00;98940.16;5039224;28;20511;-82
2024/05/01 09:08:25;;;;;;;28.23;25.67;;;20.90;80.60;;;-145.48;100.00;98975.53;5055808;28;20182;-82
2024/05/01 09:11:02;;;;;;;27.90;25.40;;;21.00;83.40;;;-145.48;100.00;98929.75;5090651;28;20613;-81
2024/05/01 09:13:28;;;;;;;27.00;24.50;;;21.00;79.40;;;-145.48;100.00;98904.78;5096017;28;20276;-80
2024/05/01 09:16:06;;;;;;;26.27;23.77;;;21.00;78.10;;;-145.48;100.00;98942.22;5099543;28;20442;-80
2024/05/01 09:18:31;;;;;;;27.33;24.83;;;21.10;75.70;;;-145.48;100.00;98963.03;5112731;28;20518;-81
2024/05/01 09:20:58;;;;;;;28.13;25.53;;;21.10;76.20;;;-145.48;100.00;98940.16;5105302;28;20444;-80
2024/05/01 09:23:27;;;;;;;29.27;26.53;;;21.00;77.00;;;-145.48;100.00;98958.88;5106176;28;20697;-80
2024/05/01 09:25:53;;;;;;;28.40;24.27;;;21.00;77.40;;;-145.48;100.00;98971.34;5088849;28;20473;-81
2024/05/01 09:28:20;;;;;;;27.33;24.53;;;20.90;80.10;;;-145.48;100.00;98952.63;5055612;28;20433;-82
2024/05/01 09:30:46;;;;;;;30.40;27.40;;;20.90;79.00;;;-145.48;100.00;98954.72;5089933;28;20810;-81
2024/05/01 09:33:12;;;;;;;27.83;24.13;;;21.00;79.30;;;-145.48;100.00;98929.75;5106298;28;20944;-81
2024/05/01 09:35:38;;;;;;;25.67;23.07;;;21.10;77.70;;;-145.48;100.00;98908.94;5038154;28;20433;-80
2024/05/01 09:38:15;;;;;;;26.33;23.57;;;21.20;73.30;;;-145.48;100.00;98892.28;5055090;28;20186;-81
2024/05/01 09:40:49;;;;;;;24.60;22.30;;;21.40;65.10;;;-145.48;100.00;98863.16;5070700;28;20443;-82
2024/05/01 09:43:22;;;;;;;25.80;23.37;;;21.40;61.00;;;-145.48;99.54;98856.91;5112131;28;20465;-81
2024/05/01 09:45:52;;;;;;;25.13;22.60;;;21.60;55.20;;;-145.48;99.79;98846.50;5095949;28;20779;-81